Terminal Aerodrome Forecast
Issued by NWS Shreveport, LA

Home | Current Version | Previous Version | Text Only | Print | Product List | Glossary On
Versions: 1 2 3 4 5 6 7 8 9 10 11 12 13 14 15 16 17 18 19
000
FTUS44 KSHV 051146
TAFLFK
TAF
KLFK 051146Z 0512/0612 VRB03KT 1/2SM FG VV002
      TEMPO 0512/0513 1/4SM FG VV001
     FM051400 14005KT 2SM BR BKN006 BKN140
      TEMPO 0514/0516 5SM BR SCT006 BKN015
     FM051600 18007KT P6SM SCT025 BKN035
     FM051800 19010G15KT P6SM BKN045
     FM052100 18008KT 6SM -TSRA BKN045CB
     FM060100 16009KT P6SM BKN150=

USA.gov is the U.S. government's official web portal to all federal, state and local government web resources and services.